Time;durP1;ratioP1;P1;durP2;ratioP2;P2;SDS_P1;SDS_P2;PMS_P1;PMS_P2;Temp;Humidity;BMP_temperature;BMP_pressure;BME280_temperature;BME280_humidity;BME280_pressure;Samples;Min_cycle;Max_cycle;Signal;HPM_P1;HPM_P2
2022/09/23 00:01:02;;;;;;;10.02;5.05;;;;;;;4.49;81.47;94131.00;5010227;28;20042;-65
2022/09/23 00:03:30;;;;;;;8.03;4.70;;;;;;;4.50;81.16;94119.72;5009345;28;20060;-65
2022/09/23 00:06:06;;;;;;;8.95;5.10;;;;;;;4.51;81.23;94131.41;5010145;28;20108;-65
2022/09/23 00:08:32;;;;;;;8.15;4.65;;;;;;;4.36;81.90;94133.16;5009320;28;20451;-65
2022/09/23 00:11:13;;;;;;;8.30;4.90;;;;;;;4.38;82.32;94131.63;5010136;28;20042;-67
2022/09/23 00:13:42;;;;;;;9.73;5.43;;;;;;;4.41;82.18;94127.41;5009046;28;20518;-65
2022/09/23 00:16:15;;;;;;;8.53;4.70;;;;;;;4.35;81.80;94126.94;5009915;28;20056;-65
2022/09/23 00:18:42;;;;;;;21.50;11.95;;;;;;;4.29;83.40;94131.16;5009048;28;20597;-67
2022/09/23 00:21:12;;;;;;;18.50;10.23;;;;;;;4.24;83.10;94128.75;5010042;28;20453;-65
2022/09/23 00:23:40;;;;;;;13.77;6.53;;;;;;;4.27;83.43;94136.16;5009375;28;20041;-65
2022/09/23 00:26:09;;;;;;;9.70;5.57;;;;;;;4.15;84.19;94125.53;5009905;28;20046;-65
2022/09/23 00:28:37;;;;;;;10.23;5.37;;;;;;;4.05;84.09;94118.06;5007667;28;20056;-66
2022/09/23 00:31:09;;;;;;;8.82;5.30;;;;;;;3.95;84.42;94125.69;5005648;28;20045;-66
2022/09/23 00:33:36;;;;;;;10.73;5.60;;;;;;;3.93;85.22;94124.50;5009802;28;20614;-66
2022/09/23 00:36:06;;;;;;;8.35;5.00;;;;;;;3.96;84.80;94126.44;5009672;28;20416;-65
2022/09/23 00:38:33;;;;;;;9.68;5.25;;;;;;;3.95;84.75;94117.53;5008891;28;20091;-67
2022/09/23 00:41:01;;;;;;;8.60;5.03;;;;;;;4.08;84.36;94125.44;5009820;28;20049;-66
2022/09/23 00:43:58;;;;;;;10.00;5.35;;;;;;;4.09;85.10;94116.94;5008878;28;20056;-66
2022/09/23 00:46:33;;;;;;;9.55;5.80;;;;;;;4.07;84.35;94111.09;5010755;28;20054;-66
2022/09/23 00:49:12;;;;;;;10.32;5.80;;;;;;;4.12;83.85;94115.41;5013547;28;20054;-65
2022/09/23 00:51:46;;;;;;;10.35;5.47;;;;;;;4.11;83.38;94108.44;5012169;28;20048;-66
2022/09/23 00:54:13;;;;;;;8.70;4.50;;;;;;;4.05;82.97;94113.41;5028811;28;20042;-64
2022/09/23 00:56:39;;;;;;;8.75;5.15;;;;;;;3.99;82.99;94112.16;5012700;28;20483;-65
2022/09/23 00:59:08;;;;;;;8.68;5.03;;;;;;;3.97;83.80;94111.75;5013278;28;20258;-66
2022/09/23 01:01:36;;;;;;;8.20;4.88;;;;;;;3.98;nan;94111.38;5012446;28;20396;-65
2022/09/23 01:04:06;;;;;;;9.32;5.10;;;;;;;3.98;83.33;94105.94;5013049;28;20041;-65
2022/09/23 01:06:33;;;;;;;14.47;4.70;;;;;;;3.94;82.73;94107.03;5011119;28;20060;-65
2022/09/23 01:08:59;;;;;;;7.80;4.32;;;;;;;3.87;82.99;94096.09;5013140;28;20449;-65
2022/09/23 01:11:54;;;;;;;8.20;4.50;;;;;;;3.90;82.63;94098.84;5012388;28;20418;-65
2022/09/23 01:14:35;;;;;;;161.68;76.53;;;;;;;3.93;82.51;94103.53;5012124;28;20450;-65
2022/09/23 01:17:04;;;;;;;32.38;15.82;;;;;;;3.86;83.34;94103.44;5012950;28;20041;-65
2022/09/23 01:20:02;;;;;;;9.23;5.20;;;;;;;3.65;84.35;94092.31;5011946;28;20131;-65
2022/09/23 01:22:34;;;;;;;8.80;4.97;;;;;;;3.60;85.21;94091.47;5011999;28;20119;-66
2022/09/23 01:25:30;;;;;;;9.30;5.20;;;;;;;3.64;85.07;94090.75;5012916;28;20050;-65
2022/09/23 01:28:15;;;;;;;9.85;5.75;;;;;;;3.60;85.14;94098.81;5011947;28;20810;-64
2022/09/23 01:31:13;;;;;;;9.13;5.30;;;;;;;3.71;84.50;94088.91;5009797;28;20879;-64
2022/09/23 01:34:06;;;;;;;10.07;5.27;;;;;;;3.71;84.47;94085.41;4999655;28;20176;-64
2022/09/23 01:36:50;;;;;;;8.85;5.05;;;;;;;3.68;84.50;94086.94;5005669;28;20054;-65
2022/09/23 01:39:19;;;;;;;9.57;5.47;;;;;;;3.71;83.84;94088.13;5012313;28;20050;-66
2022/09/23 01:42:16;;;;;;;9.38;4.97;;;;;;;3.70;84.12;94094.69;5012426;28;20107;-67
2022/09/23 01:44:55;;;;;;;8.85;5.32;;;;;;;3.68;84.18;94080.72;5011269;28;20082;-65
2022/09/23 01:47:34;;;;;;;9.20;5.40;;;;;;;3.59;83.98;94087.19;5011753;28;20100;-67
2022/09/23 01:53:05;;;;;;;10.50;5.95;;;;;;;3.44;84.58;94081.94;5011356;28;20799;-64
2022/09/23 01:55:37;;;;;;;10.80;5.78;;;;;;;3.42;85.19;94089.66;4998733;28;20057;-64
2022/09/23 01:58:14;;;;;;;10.50;6.40;;;;;;;3.38;85.34;94084.16;5011585;28;20050;-64
2022/09/23 02:00:50;;;;;;;11.23;6.20;;;;;;;3.34;85.70;94080.63;5010925;28;20752;-65
2022/09/23 02:03:25;;;;;;;10.15;5.85;;;;;;;3.31;85.90;94081.38;5011511;28;20542;-65
2022/09/23 02:06:01;;;;;;;9.45;5.78;;;;;;;3.24;85.96;94079.34;5012252;28;20103;-66
2022/09/23 02:08:39;;;;;;;10.70;5.30;;;;;;;3.19;85.28;94074.97;5011334;28;20038;-64
2022/09/23 02:11:09;;;;;;;10.52;5.70;;;;;;;3.17;86.23;94077.28;5012219;28;20042;-64
2022/09/23 02:13:44;;;;;;;11.77;5.60;;;;;;;3.26;85.89;94074.34;5009928;28;20046;-66
2022/09/23 02:16:32;;;;;;;10.77;5.60;;;;;;;3.28;86.11;94072.03;5011885;28;20046;-64
2022/09/23 02:19:19;;;;;;;9.48;5.53;;;;;;;3.33;84.66;94071.72;5010674;28;20796;-64
2022/09/23 02:21:51;;;;;;;9.32;4.85;;;;;;;3.33;84.37;94074.41;5010816;28;20804;-64
2022/09/23 02:24:24;;;;;;;8.60;5.10;;;;;;;3.29;84.46;94073.59;5011140;28;20413;-64
2022/09/23 02:26:57;;;;;;;9.43;5.50;;;;;;;3.26;84.67;94068.09;5011902;28;20060;-65
2022/09/23 02:29:26;;;;;;;11.63;5.72;;;;;;;3.19;85.97;94066.84;5011086;28;20048;-70
2022/09/23 02:32:12;;;;;;;8.35;5.13;;;;;;;3.18;86.13;94067.22;5011775;28;20041;-65
2022/09/23 02:34:54;;;;;;;8.88;5.10;;;;;;;3.22;85.54;94062.66;5010751;28;20038;-64
2022/09/23 02:37:53;;;;;;;9.32;5.05;;;;;;;3.18;85.84;94059.09;5009829;28;20046;-65
2022/09/23 02:40:39;;;;;;;7.77;4.73;;;;;;;3.23;85.88;94058.00;5011068;28;20069;-65
2022/09/23 02:43:18;;;;;;;12.32;6.47;;;;;;;3.17;85.50;94055.59;5011401;28;20041;-64
2022/09/23 02:45:46;;;;;;;16.27;7.57;;;;;;;3.15;85.35;94055.16;5008942;28;20863;-64
2022/09/23 02:48:21;;;;;;;9.90;5.82;;;;;;;3.11;85.81;94058.97;5011185;28;20092;-65
2022/09/23 02:50:49;;;;;;;10.20;5.95;;;;;;;2.96;86.86;94053.34;5010030;28;21737;-65
2022/09/23 02:53:16;;;;;;;11.43;6.17;;;;;;;2.92;86.89;94047.09;5010693;28;20057;-65
2022/09/23 02:55:43;;;;;;;11.55;6.18;;;;;;;2.90;87.67;94048.59;5009848;28;20050;-66
2022/09/23 02:58:12;;;;;;;10.95;6.88;;;;;;;2.87;87.97;94049.31;5009766;28;20050;-68
2022/09/23 03:00:58;;;;;;;10.93;5.63;;;;;;;2.91;87.86;94042.03;5010034;28;20516;-67
2022/09/23 03:03:48;;;;;;;11.48;6.68;;;;;;;2.84;88.38;94041.91;5010479;28;20549;-70
2022/09/23 03:06:32;;;;;;;11.00;6.20;;;;;;;2.89;88.06;94036.94;5005100;28;20123;-66
2022/09/23 03:09:12;;;;;;;11.93;6.20;;;;;;;2.91;88.57;94044.72;5009540;28;20076;-65
2022/09/23 03:11:45;;;;;;;10.95;6.72;;;;;;;2.91;88.40;94045.50;5009747;28;20042;-67
2022/09/23 03:14:27;;;;;;;10.18;6.13;;;;;;;2.89;88.46;94042.38;5010819;28;20045;-63
2022/09/23 03:17:11;;;;;;;10.98;6.22;;;;;;;2.86;88.09;94043.13;5010133;28;20689;-64
2022/09/23 03:19:44;;;;;;;12.23;7.17;;;;;;;2.73;88.50;94047.94;5008699;28;20048;-64
2022/09/23 03:22:17;;;;;;;12.02;6.40;;;;;;;2.77;88.35;94040.63;5010064;28;20388;-64
2022/09/23 03:24:46;;;;;;;11.20;6.63;;;;;;;2.71;88.84;94042.09;5010047;28;20852;-66
2022/09/23 03:27:24;;;;;;;12.10;6.53;;;;;;;2.70;89.18;94047.88;5010176;28;20042;-64
2022/09/23 03:29:52;;;;;;;12.27;6.85;;;;;;;2.72;88.69;94040.94;5010491;28;20045;-64
2022/09/23 03:32:23;;;;;;;10.63;6.50;;;;;;;2.74;88.98;94049.50;5010086;28;20099;-65
2022/09/23 03:34:52;;;;;;;11.85;6.43;;;;;;;2.74;88.92;94044.09;5008719;28;20084;-64
2022/09/23 03:37:25;;;;;;;11.40;6.68;;;;;;;2.73;89.49;94044.44;5009965;28;20052;-64
2022/09/23 03:40:00;;;;;;;11.52;6.40;;;;;;;2.75;89.27;94036.72;5010126;28;20046;-63
2022/09/23 03:42:30;;;;;;;11.10;6.50;;;;;;;2.62;89.41;94040.75;5009812;28;20054;-65
2022/09/23 03:44:57;;;;;;;11.60;6.60;;;;;;;2.66;89.07;94039.69;5010240;28;20483;-63
2022/09/23 03:47:26;;;;;;;10.90;6.25;;;;;;;2.60;89.85;94035.72;5009721;28;20126;-66
2022/09/23 03:49:53;;;;;;;11.48;6.85;;;;;;;2.59;89.72;94036.84;5009800;28;20046;-64
2022/09/23 03:52:23;;;;;;;11.23;6.38;;;;;;;2.58;90.08;94043.44;5009721;28;20092;-64
2022/09/23 03:54:51;;;;;;;10.77;6.50;;;;;;;2.64;89.62;94038.50;5008425;28;20071;-63
2022/09/23 03:57:20;;;;;;;10.97;6.47;;;;;;;2.62;89.77;94043.47;5009664;28;20096;-67
2022/09/23 03:59:49;;;;;;;12.05;6.78;;;;;;;2.62;90.10;94027.22;5009653;28;20048;-63
2022/09/23 04:02:17;;;;;;;11.52;6.70;;;;;;;2.56;89.77;94035.66;5009628;28;20099;-64
2022/09/23 04:04:44;;;;;;;11.43;6.75;;;;;;;2.51;89.98;94037.88;5009663;28;20034;-63
2022/09/23 04:07:11;;;;;;;28.15;14.75;;;;;;;2.42;90.32;94031.94;5010076;28;20469;-65
2022/09/23 04:09:38;;;;;;;13.40;7.53;;;;;;;2.43;90.49;94036.19;5009353;28;20044;-64
2022/09/23 04:12:06;;;;;;;22.35;12.63;;;;;;;2.32;91.86;94033.31;5009797;28;20053;-65
2022/09/23 04:14:32;;;;;;;24.95;13.85;;;;;;;2.38;91.17;94032.63;5009361;28;20384;-64
2022/09/23 04:16:59;;;;;;;23.25;13.27;;;;;;;2.39;91.69;94026.09;5009971;28;20056;-63
2022/09/23 04:19:26;;;;;;;27.98;16.25;;;;;;;2.29;91.41;94021.25;5007499;28;20054;-63
2022/09/23 04:21:52;;;;;;;44.17;23.87;;;;;;;2.40;91.76;94027.66;5013671;28;20071;-65
2022/09/23 04:24:19;;;;;;;37.50;19.10;;;;;;;2.43;91.72;94030.78;5014013;28;20049;-63
2022/09/23 04:26:50;;;;;;;56.97;29.67;;;;;;;2.47;91.34;94024.25;5013525;28;20152;-66
2022/09/23 04:29:17;;;;;;;45.83;23.88;;;;;;;2.47;91.65;94031.63;5013292;28;20091;-64
2022/09/23 04:31:44;;;;;;;35.40;19.38;;;;;;;2.48;91.23;94025.84;5013565;28;20041;-66
2022/09/23 04:34:11;;;;;;;23.47;13.43;;;;;;;2.40;91.29;94030.34;5013814;28;20057;-63
2022/09/23 04:36:38;;;;;;;17.75;9.73;;;;;;;2.39;91.93;94020.69;5012974;28;20501;-64
2022/09/23 04:39:05;;;;;;;18.05;10.32;;;;;;;2.44;91.30;94025.00;5013588;28;20347;-64
2022/09/23 04:41:32;;;;;;;16.50;9.52;;;;;;;2.48;91.15;94031.25;5012719;28;20065;-70
2022/09/23 04:43:59;;;;;;;21.05;12.45;;;;;;;2.45;91.43;94029.25;5013139;28;20038;-64
2022/09/23 04:46:25;;;;;;;22.37;13.23;;;;;;;2.50;90.93;94025.50;5013195;28;20042;-64
2022/09/23 04:48:53;;;;;;;18.42;10.68;;;;;;;2.44;91.26;94026.94;5012657;28;20048;-65
2022/09/23 04:51:25;;;;;;;20.83;12.30;;;;;;;2.34;91.87;94029.09;5012782;28;20046;-64
2022/09/23 04:53:52;;;;;;;16.02;8.77;;;;;;;2.37;91.70;94028.38;5012936;28;20889;-64
2022/09/23 04:56:25;;;;;;;19.65;10.82;;;;;;;2.35;91.09;94027.94;5012961;28;20045;-65
2022/09/23 04:58:52;;;;;;;24.07;13.67;;;;;;;2.33;91.42;94029.44;5012810;28;20038;-65
2022/09/23 05:01:25;;;;;;;19.85;10.70;;;;;;;2.36;91.75;94031.44;5012674;28;20042;-67
2022/09/23 05:03:55;;;;;;;15.77;9.40;;;;;;;2.33;92.41;94030.22;5012674;28;20249;-66
2022/09/23 05:06:22;;;;;;;16.50;9.90;;;;;;;2.26;92.13;94027.41;5012802;28;20080;-65
2022/09/23 05:08:53;;;;;;;17.17;10.75;;;;;;;2.32;92.40;94036.78;5012624;28;20041;-64
2022/09/23 05:11:21;;;;;;;20.23;12.47;;;;;;;2.29;92.18;94037.50;5012581;28;20103;-65
2022/09/23 05:13:49;;;;;;;17.17;9.00;;;;;;;2.25;92.39;94033.16;5012664;28;20052;-65
2022/09/23 05:16:17;;;;;;;14.35;8.50;;;;;;;2.20;92.68;94039.66;4997213;28;20042;-64
2022/09/23 05:18:45;;;;;;;15.13;8.43;;;;;;;2.31;92.34;94034.44;5012562;28;20113;-67
2022/09/23 05:21:13;;;;;;;14.88;7.85;;;;;;;2.29;91.70;94028.59;5012759;28;20073;-66
2022/09/23 05:23:41;;;;;;;16.50;9.03;;;;;;;2.28;92.05;94037.88;5011532;28;20721;-66
2022/09/23 05:26:12;;;;;;;15.45;8.18;;;;;;;2.35;91.71;94038.00;5012686;28;20045;-64
2022/09/23 05:28:39;;;;;;;14.30;7.93;;;;;;;2.40;91.57;94033.06;5011871;28;20045;-65
2022/09/23 05:31:15;;;;;;;13.63;7.32;;;;;;;2.50;91.18;94039.81;5027603;28;20049;-66
2022/09/23 05:33:50;;;;;;;13.88;7.60;;;;;;;2.61;91.48;94037.28;5010655;28;20859;-68
2022/09/23 05:36:19;;;;;;;13.97;8.30;;;;;;;2.65;90.42;94037.34;5011955;28;20170;-66
2022/09/23 05:38:48;;;;;;;13.90;7.43;;;;;;;2.89;89.93;94045.09;5012084;28;20477;-66
2022/09/23 05:41:15;;;;;;;10.80;6.88;;;;;;;3.11;88.78;94058.97;5011926;28;20046;-62
2022/09/23 05:43:42;;;;;;;13.70;6.88;;;;;;;3.15;89.35;94048.97;5011672;28;20079;-65
2022/09/23 05:46:16;;;;;;;12.65;7.30;;;;;;;3.27;88.71;94054.19;5011255;28;20069;-66
2022/09/23 05:48:47;;;;;;;11.17;6.57;;;;;;;3.25;88.79;94051.06;5010993;28;20869;-65
2022/09/23 05:51:16;;;;;;;12.77;7.00;;;;;;;3.47;88.73;94048.66;5012170;28;20057;-66
2022/09/23 05:53:46;;;;;;;14.10;7.40;;;;;;;3.48;87.66;94048.28;5010717;28;20684;-66
2022/09/23 05:56:15;;;;;;;13.57;7.68;;;;;;;3.44;88.30;94049.38;5011665;28;20054;-66
2022/09/23 05:58:42;;;;;;;14.65;7.90;;;;;;;3.63;87.39;94043.06;5010599;28;20115;-66
2022/09/23 06:01:16;;;;;;;14.97;8.10;;;;;;;3.71;87.21;94055.56;5010196;28;20064;-66
2022/09/23 06:03:51;;;;;;;13.13;7.90;;;;;;;3.90;86.33;94046.47;5004756;28;20738;-66
2022/09/23 06:06:21;;;;;;;13.73;7.30;;;;;;;3.84;86.96;94040.59;5007378;28;20050;-66
2022/09/23 06:08:48;;;;;;;12.43;7.28;;;;;;;3.92;86.00;94041.47;5010467;28;20045;-64
2022/09/23 06:11:15;;;;;;;14.82;7.90;;;;;;;4.00;86.61;94041.19;5009506;28;20060;-61
2022/09/23 06:13:42;;;;;;;15.63;8.17;;;;;;;4.16;85.15;94040.97;5010774;28;20410;-66
2022/09/23 06:16:12;;;;;;;14.30;8.40;;;;;;;4.32;85.17;94039.97;5010996;28;20461;-65
2022/09/23 06:18:44;;;;;;;14.63;9.25;;;;;;;4.26;85.33;94042.22;5010273;28;20038;-65
2022/09/23 06:21:13;;;;;;;15.88;8.23;;;;;;;4.26;85.39;94042.22;5011041;28;20044;-65
2022/09/23 06:23:41;;;;;;;15.13;7.80;;;;;;;4.55;84.79;94039.81;5009727;28;20621;-65
2022/09/23 06:26:09;;;;;;;15.47;8.40;;;;;;;4.58;84.78;94044.50;5011111;28;20057;-66
2022/09/23 06:28:38;;;;;;;14.45;7.90;;;;;;;4.54;84.25;94039.03;5010885;28;20048;-66
2022/09/23 06:31:14;;;;;;;13.50;7.80;;;;;;;4.63;84.67;94027.84;5011100;28;20052;-67
2022/09/23 06:33:42;;;;;;;13.15;7.80;;;;;;;4.86;85.21;94038.53;5009440;28;20325;-65
2022/09/23 06:36:09;;;;;;;14.57;7.57;;;;;;;5.34;83.48;94040.44;5004562;28;20229;-66
2022/09/23 06:38:40;;;;;;;13.63;7.57;;;;;;;6.00;81.12;94029.53;5010523;28;20049;-67
2022/09/23 06:41:06;;;;;;;11.20;6.50;;;;;;;6.19;78.92;94028.44;5010604;28;20480;-65
2022/09/23 06:43:33;;;;;;;10.82;6.40;;;;;;;6.16;79.67;94037.38;5009832;28;20406;-66
2022/09/23 06:46:02;;;;;;;10.95;6.43;;;;;;;6.23;79.80;94031.94;5010861;28;20414;-65
2022/09/23 06:48:33;;;;;;;11.68;6.80;;;;;;;6.29;79.36;94030.41;5010370;28;20449;-65
2022/09/23 06:51:03;;;;;;;12.57;7.13;;;;;;;6.27;79.31;94029.25;4999355;28;20038;-66
2022/09/23 06:53:31;;;;;;;14.30;7.50;;;;;;;6.37;79.05;94028.47;4992869;28;20392;-66
2022/09/23 06:56:05;;;;;;;11.38;6.95;;;;;;;6.33;79.41;94024.97;5010633;28;20050;-66
2022/09/23 06:58:34;;;;;;;11.55;7.10;;;;;;;6.80;79.04;94034.00;5010565;28;20041;-66
2022/09/23 07:01:07;;;;;;;10.82;6.90;;;;;;;7.17;77.35;94030.91;5009530;28;20050;-66
2022/09/23 07:03:34;;;;;;;11.80;6.50;;;;;;;7.33;75.85;94035.19;5010508;28;20050;-66
2022/09/23 07:06:02;;;;;;;11.25;6.10;;;;;;;7.95;74.69;94031.16;5010493;28;20050;-66
2022/09/23 07:08:29;;;;;;;12.70;6.20;;;;;;;8.21;73.71;94029.88;5010442;28;20050;-66
2022/09/23 07:10:58;;;;;;;17.15;5.85;;;;;;;8.85;70.80;94025.25;5010618;28;20046;-66
2022/09/23 07:13:26;;;;;;;10.20;5.85;;;;;;;9.06;69.84;94033.31;5010502;28;20411;-66
2022/09/23 07:16:00;;;;;;;8.17;5.37;;;;;;;10.83;66.19;94027.47;5010632;28;20060;-65
2022/09/23 07:18:32;;;;;;;8.85;5.93;;;;;;;13.05;58.10;94028.09;5010366;28;20050;-66
2022/09/23 07:21:06;;;;;;;7.50;5.35;;;;;;;12.98;57.32;94020.00;5010777;28;20049;-66
2022/09/23 07:23:33;;;;;;;8.25;5.40;;;;;;;14.68;52.26;94015.22;5009920;28;20037;-65
2022/09/23 07:26:00;;;;;;;9.75;5.32;;;;;;;15.25;49.36;94018.25;5010468;28;20043;-66
2022/09/23 07:28:27;;;;;;;9.23;5.37;;;;;;;15.40;49.16;94015.03;5010120;28;20042;-64
2022/09/23 07:30:55;;;;;;;7.32;5.55;;;;;;;15.62;49.14;94004.81;5010235;28;20398;-64
2022/09/23 07:33:30;;;;;;;7.57;5.65;;;;;;;16.16;48.00;94016.88;5010001;28;20091;-65
2022/09/23 07:36:04;;;;;;;7.68;5.40;;;;;;;17.09;46.18;94015.47;5010301;28;20037;-64
2022/09/23 07:38:31;;;;;;;6.65;5.30;;;;;;;17.08;45.60;94014.69;5010034;28;20495;-64
2022/09/23 07:41:05;;;;;;;7.77;4.90;;;;;;;17.45;44.72;94016.84;5010154;28;20046;-64
2022/09/23 07:43:32;;;;;;;9.00;5.00;;;;;;;16.50;46.35;94016.03;5010005;28;20050;-64
2022/09/23 07:46:07;;;;;;;12.63;5.30;;;;;;;15.54;49.65;94011.81;5010207;28;20089;-64
2022/09/23 07:48:35;;;;;;;7.72;5.07;;;;;;;15.78;49.58;94015.75;5009718;28;20052;-63
2022/09/23 07:51:09;;;;;;;9.02;5.57;;;;;;;15.34;50.49;94006.53;5009971;28;20119;-64
2022/09/23 07:53:36;;;;;;;6.80;5.00;;;;;;;15.40;50.88;94012.28;5009804;28;20049;-64
2022/09/23 07:56:05;;;;;;;7.75;5.38;;;;;;;15.33;52.27;94016.03;5008085;28;20042;-65
2022/09/23 07:58:33;;;;;;;7.88;5.30;;;;;;;15.59;51.41;94019.53;5009988;28;20203;-67
2022/09/23 08:01:02;;;;;;;8.00;5.40;;;;;;;15.06;52.69;94025.56;5010193;28;20103;-68
2022/09/23 08:03:28;;;;;;;9.82;5.38;;;;;;;15.37;51.89;94022.22;5009377;28;20510;-67
2022/09/23 08:06:11;;;;;;;8.57;6.00;;;;;;;14.55;53.70;94023.47;5009946;28;20050;-67
2022/09/23 08:08:42;;;;;;;8.60;6.20;;;;;;;14.14;55.55;94027.00;5009649;28;20046;-67
2022/09/23 08:11:10;;;;;;;8.57;5.97;;;;;;;14.43;55.19;94020.66;5010012;28;20068;-67
2022/09/23 08:13:37;;;;;;;9.75;5.78;;;;;;;14.84;54.37;94019.13;5009673;28;20095;-67
2022/09/23 08:16:05;;;;;;;9.75;5.68;;;;;;;14.97;53.69;94025.47;5009704;28;20034;-67
2022/09/23 08:18:32;;;;;;;9.27;5.97;;;;;;;14.71;54.63;94035.69;5009304;28;20050;-67
2022/09/23 08:20:59;;;;;;;9.73;5.90;;;;;;;14.42;54.67;94035.69;5009495;28;20046;-66
2022/09/23 08:23:26;;;;;;;8.93;6.57;;;;;;;14.39;55.31;94034.59;5009655;28;20053;-65
2022/09/23 08:25:58;;;;;;;12.32;6.10;;;;;;;15.69;52.49;94035.00;5009603;28;20552;-65
2022/09/23 08:28:26;;;;;;;8.90;6.30;;;;;;;16.05;50.84;94033.81;5009277;28;20076;-65
2022/09/23 08:30:54;;;;;;;8.00;6.10;;;;;;;16.09;50.72;94026.16;5009695;28;20446;-66
2022/09/23 08:33:21;;;;;;;8.45;5.90;;;;;;;16.53;49.96;94030.97;5009591;28;20052;-65
2022/09/23 08:35:50;;;;;;;8.48;6.15;;;;;;;16.45;50.09;94030.44;5009655;28;20044;-66
2022/09/23 08:38:17;;;;;;;10.77;6.03;;;;;;;16.03;51.53;94027.19;5009084;28;20092;-65
2022/09/23 08:40:47;;;;;;;9.85;5.72;;;;;;;17.40;49.05;94032.06;5009765;28;20486;-65
2022/09/23 08:43:44;;;;;;;8.23;5.73;;;;;;;16.92;48.17;94035.09;5008549;28;20111;-66
2022/09/23 08:46:17;;;;;;;9.95;5.50;;;;;;;17.27;48.21;94034.94;5007966;28;20677;-67
2022/09/23 08:48:48;;;;;;;7.80;6.10;;;;;;;17.71;46.72;94037.56;5008685;28;21632;-65
2022/09/23 08:51:28;;;;;;;10.05;5.75;;;;;;;18.04;46.29;94027.91;5009874;28;20041;-65
2022/09/23 08:53:54;;;;;;;8.25;5.80;;;;;;;18.08;46.42;94025.75;5008755;28;20337;-65
2022/09/23 08:56:22;;;;;;;7.90;5.50;;;;;;;18.12;46.21;94029.91;5007462;28;20053;-66
2022/09/23 08:59:06;;;;;;;9.60;6.30;;;;;;;18.34;46.24;94024.22;5009599;28;20099;-66
2022/09/23 09:01:48;;;;;;;8.68;5.90;;;;;;;19.08;44.23;94021.34;5008952;28;20049;-66
2022/09/23 09:04:24;;;;;;;7.32;5.10;;;;;;;18.15;46.95;94017.91;5002285;28;20049;-60
2022/09/23 09:06:54;;;;;;;7.20;5.40;;;;;;;20.28;42.63;94014.38;4997666;28;20046;-66
2022/09/23 09:09:53;;;;;;;7.23;5.20;;;;;;;19.71;43.05;94012.44;5012919;28;20049;-69
2022/09/23 09:12:42;;;;;;;8.77;5.20;;;;;;;19.78;43.13;94014.09;5012570;28;20061;-66
2022/09/23 09:15:22;;;;;;;7.38;5.00;;;;;;;20.06;42.33;94009.13;5012698;28;20433;-66
2022/09/23 09:18:11;;;;;;;8.40;5.13;;;;;;;22.28;38.80;94008.25;5012126;28;21392;-66
2022/09/23 09:20:56;;;;;;;8.15;4.70;;;;;;;22.63;36.90;94006.59;5012712;28;20083;-66
2022/09/23 09:23:46;;;;;;;8.27;5.27;;;;;;;20.52;41.28;94001.19;5012929;28;20056;-66
2022/09/23 09:26:20;;;;;;;7.57;5.53;;;;;;;20.39;40.68;94000.66;5012920;28;20046;-66
2022/09/23 09:28:53;;;;;;;7.63;5.38;;;;;;;19.87;42.13;94000.88;5010598;28;20045;-66
2022/09/23 09:31:46;;;;;;;7.63;4.78;;;;;;;19.27;43.48;93993.47;5012399;28;20061;-67
2022/09/23 09:34:32;;;;;;;7.75;5.18;;;;;;;19.78;42.43;93986.25;5012416;28;20052;-66
2022/09/23 09:37:02;;;;;;;7.60;5.23;;;;;;;19.80;42.25;93983.75;5011724;28;20791;-66
2022/09/23 09:39:34;;;;;;;8.13;5.15;;;;;;;19.23;43.79;93984.50;5012379;28;20553;-66
2022/09/23 09:42:02;;;;;;;7.18;5.13;;;;;;;20.77;41.76;93976.03;5012590;28;20046;-66
2022/09/23 09:44:57;;;;;;;7.32;4.60;;;;;;;20.46;41.10;93974.44;5011752;28;20368;-66
2022/09/23 09:47:39;;;;;;;8.43;5.15;;;;;;;19.79;42.14;93968.31;5011756;28;20057;-66
2022/09/23 09:50:07;;;;;;;7.40;4.87;;;;;;;18.85;44.71;93975.53;5012247;28;20064;-65
2022/09/23 09:52:35;;;;;;;8.88;4.82;;;;;;;19.51;43.32;93962.88;5011842;28;20480;-66
2022/09/23 09:55:11;;;;;;;7.18;4.45;;;;;;;20.42;42.65;93959.91;5011038;28;20049;-65
2022/09/23 09:58:00;;;;;;;7.60;5.20;;;;;;;19.73;43.42;93955.03;5009264;28;20050;-65
2022/09/23 10:00:27;;;;;;;7.50;4.78;;;;;;;20.24;42.12;93949.69;5011827;28;20052;-66
2022/09/23 10:03:01;;;;;;;6.03;4.20;;;;;;;22.01;38.96;93945.09;5011811;28;20089;-66
2022/09/23 10:05:45;;;;;;;8.85;5.03;;;;;;;21.00;40.37;93952.81;5011345;28;20072;-66
2022/09/23 10:08:21;;;;;;;7.88;4.63;;;;;;;22.54;38.45;93948.78;5011735;28;20049;-65
2022/09/23 10:10:57;;;;;;;6.95;4.88;;;;;;;22.21;38.93;93949.16;5011188;28;20072;-66
2022/09/23 10:13:26;;;;;;;7.63;5.10;;;;;;;21.95;38.56;93941.47;5011769;28;20069;-65
2022/09/23 10:15:53;;;;;;;6.60;4.73;;;;;;;21.97;38.74;93943.78;5011938;28;20048;-65
2022/09/23 10:18:47;;;;;;;7.72;4.57;;;;;;;20.90;40.66;93945.81;5010862;28;20049;-66
2022/09/23 10:21:19;;;;;;;8.38;5.00;;;;;;;21.63;40.06;93951.72;5011657;28;20060;-65
2022/09/23 10:23:56;;;;;;;8.48;6.10;;;;;;;20.11;42.95;93945.16;5010576;28;20111;-68
2022/09/23 10:26:32;;;;;;;8.07;5.18;;;;;;;23.43;36.76;93938.84;5010945;28;20393;-65
2022/09/23 10:29:19;;;;;;;7.50;4.63;;;;;;;22.33;38.10;93943.25;5011398;28;20049;-66
2022/09/23 10:31:46;;;;;;;6.78;4.72;;;;;;;23.55;36.54;93934.84;5010662;28;20422;-66
2022/09/23 10:34:26;;;;;;;7.57;5.18;;;;;;;22.86;37.14;93932.81;5009876;28;20054;-66
2022/09/23 10:37:00;;;;;;;7.65;4.82;;;;;;;21.89;39.38;93946.22;5010521;28;20034;-67
2022/09/23 10:48:30;;;;;;;8.65;4.97;;;;;;;22.93;37.58;93931.59;5010694;28;20048;-65
2022/09/23 10:50:58;;;;;;;6.32;4.40;;;;;;;22.83;37.37;93931.00;5011168;28;20514;-66
2022/09/23 10:53:52;;;;;;;8.80;4.50;;;;;;;23.88;35.15;93923.06;5010734;28;20403;-67
2022/09/23 10:56:34;;;;;;;6.90;4.10;;;;;;;25.58;33.13;93923.34;5010785;28;20062;-66
2022/09/23 10:59:17;;;;;;;6.28;4.10;;;;;;;26.48;30.34;93917.38;5011008;28;20381;-67
2022/09/23 11:01:49;;;;;;;6.45;3.83;;;;;;;25.27;33.20;93917.50;5008728;28;20633;-66
2022/09/23 11:04:36;;;;;;;6.53;4.35;;;;;;;24.15;34.03;93918.09;5011267;28;20049;-66
2022/09/23 11:07:20;;;;;;;5.15;3.78;;;;;;;23.44;35.03;93913.16;5008908;28;20096;-66
2022/09/23 11:10:18;;;;;;;4.57;3.03;;;;;;;23.10;33.44;93912.13;5010268;28;20724;-66
2022/09/23 11:13:31;;;;;;;5.22;2.97;;;;;;;24.05;33.63;93902.78;5009987;28;21504;-66
2022/09/23 11:16:16;;;;;;;4.25;2.83;;;;;;;25.28;30.47;93899.38;5009766;28;20462;-66
2022/09/23 11:19:02;;;;;;;6.43;3.60;;;;;;;24.56;30.41;93898.06;5009886;28;20068;-66
2022/09/23 11:21:43;;;;;;;6.85;3.13;;;;;;;23.02;34.09;93897.84;5010108;28;20099;-65
2022/09/23 11:24:33;;;;;;;4.63;3.10;;;;;;;23.57;32.52;93900.75;5010646;28;20115;-66
2022/09/23 11:27:18;;;;;;;5.55;3.50;;;;;;;22.88;35.44;93893.91;5024707;28;20064;-66
2022/09/23 11:29:56;;;;;;;4.95;3.33;;;;;;;22.10;34.69;93896.72;5008954;28;20425;-65
2022/09/23 11:32:55;;;;;;;5.93;2.90;;;;;;;21.29;35.36;93890.59;5010035;28;20038;-65
2022/09/23 11:35:26;;;;;;;4.53;2.70;;;;;;;21.47;34.86;93886.81;5004053;28;20060;-66
2022/09/23 11:38:15;;;;;;;5.43;3.60;;;;;;;20.29;40.38;93891.28;5010542;28;20061;-65
2022/09/23 11:40:45;;;;;;;5.82;3.42;;;;;;;19.53;40.42;93885.25;5009505;28;21552;-65
2022/09/23 11:43:22;;;;;;;6.05;3.63;;;;;;;19.01;41.30;93885.38;5010148;28;20057;-64
2022/09/23 11:45:57;;;;;;;6.10;3.30;;;;;;;19.65;39.71;93881.44;5009372;28;20784;-65
2022/09/23 11:48:33;;;;;;;7.75;3.45;;;;;;;20.25;39.73;93884.38;5009721;28;20050;-65
2022/09/23 11:51:13;;;;;;;5.03;3.40;;;;;;;19.79;41.12;93887.56;5009955;28;20046;-64
2022/09/23 11:53:49;;;;;;;6.28;3.92;;;;;;;20.04;42.42;93884.25;5009397;28;21121;-65
2022/09/23 11:56:26;;;;;;;6.45;4.03;;;;;;;19.88;41.79;93879.09;5009315;28;20045;-65
2022/09/23 11:59:12;;;;;;;7.18;4.13;;;;;;;19.60;43.20;93878.53;5010118;28;20053;-66
2022/09/23 12:01:43;;;;;;;4.88;3.00;;;;;;;19.39;42.20;93869.25;5008155;28;20086;-65
2022/09/23 12:04:23;;;;;;;6.47;3.00;;;;;;;19.87;40.15;93864.44;5010812;28;20143;-65
2022/09/23 12:06:59;;;;;;;5.50;3.13;;;;;;;19.82;39.43;93873.47;5006426;28;20042;-65
2022/09/23 12:09:56;;;;;;;4.93;3.22;;;;;;;20.19;38.92;93866.78;5009321;28;20042;-64
2022/09/23 12:12:37;;;;;;;6.82;3.25;;;;;;;20.65;38.37;93875.44;5009673;28;20034;-65
2022/09/23 12:15:15;;;;;;;5.45;2.70;;;;;;;20.45;38.43;93862.16;5009627;28;20060;-65
2022/09/23 12:17:42;;;;;;;8.10;3.30;;;;;;;20.69;36.79;93858.53;5009148;28;20692;-65